createdAt,value
2018-01-29T00:00:07.328Z,5.90
2018-01-29T00:02:35.806Z,5.90
2018-01-29T00:05:04.424Z,5.90
2018-01-29T00:07:32.939Z,5.80
2018-01-29T00:10:01.585Z,5.80
2018-01-29T00:12:30.069Z,5.80
2018-01-29T00:14:58.551Z,5.90
2018-01-29T00:17:27.031Z,5.80
2018-01-29T00:19:55.500Z,5.80
2018-01-29T00:22:23.966Z,5.80
2018-01-29T00:24:52.475Z,5.80
2018-01-29T00:27:20.307Z,5.80
2018-01-29T00:29:49.260Z,5.80
2018-01-29T00:32:19.042Z,5.80
2018-01-29T00:34:48.399Z,5.80
2018-01-29T00:37:16.885Z,5.80
2018-01-29T00:39:45.350Z,5.80
2018-01-29T00:42:14.576Z,5.80
2018-01-29T00:44:43.061Z,5.80
2018-01-29T00:47:11.548Z,5.80
2018-01-29T00:49:40.006Z,5.80
2018-01-29T00:52:08.482Z,5.80
2018-01-29T00:54:36.973Z,5.80
2018-01-29T00:57:05.436Z,5.90
2018-01-29T00:59:33.906Z,5.80
2018-01-29T01:02:02.382Z,5.80
2018-01-29T01:04:31.598Z,5.80
2018-01-29T01:07:00.293Z,5.80
2018-01-29T01:09:28.756Z,5.80
2018-01-29T01:11:57.230Z,5.80
2018-01-29T01:14:25.681Z,5.80
2018-01-29T01:16:54.936Z,5.80
2018-01-29T01:19:23.424Z,5.80
2018-01-29T01:21:51.905Z,5.80
2018-01-29T01:24:20.380Z,5.90
2018-01-29T01:26:49.210Z,5.80
2018-01-29T01:29:18.468Z,5.80
2018-01-29T01:31:46.933Z,5.80
2018-01-29T01:34:15.402Z,5.80
2018-01-29T01:36:43.896Z,5.80
2018-01-29T01:39:12.374Z,5.80
2018-01-29T01:41:40.841Z,5.80
2018-01-29T01:44:09.333Z,5.80
2018-01-29T01:46:37.818Z,5.80
2018-01-29T01:49:06.290Z,5.80
2018-01-29T01:51:34.583Z,5.80
2018-01-29T01:54:03.032Z,5.80
2018-01-29T01:56:31.188Z,5.80
2018-01-29T01:58:59.652Z,5.80
2018-01-29T02:01:28.887Z,5.80
2018-01-29T02:03:57.354Z,5.80
2018-01-29T02:06:25.824Z,5.70
2018-01-29T02:08:54.303Z,5.80
2018-01-29T02:11:22.771Z,5.80
2018-01-29T02:13:52.017Z,5.80
2018-01-29T02:16:20.487Z,5.80
2018-01-29T02:18:49.759Z,5.90
2018-01-29T02:21:18.912Z,5.90
2018-01-29T02:23:47.372Z,5.80
2018-01-29T02:26:16.514Z,5.80
2018-01-29T02:28:45.738Z,5.70
2018-01-29T02:31:14.226Z,5.70
2018-01-29T02:33:42.713Z,5.70
2018-01-29T02:36:11.169Z,5.80
2018-01-29T02:38:39.835Z,5.80
2018-01-29T02:41:09.070Z,5.90
2018-01-29T02:43:37.537Z,5.90
2018-01-29T02:46:05.857Z,5.80
2018-01-29T02:48:34.120Z,5.80
2018-01-29T02:51:02.400Z,5.70
2018-01-29T02:53:30.700Z,5.70
2018-01-29T02:55:59.744Z,5.70
2018-01-29T02:58:27.716Z,5.70
2018-01-29T03:00:56.185Z,5.70
2018-01-29T03:03:24.638Z,5.70
2018-01-29T03:05:53.117Z,5.80
2018-01-29T03:08:22.344Z,5.80
2018-01-29T03:10:50.825Z,5.80
2018-01-29T03:13:19.316Z,5.80
2018-01-29T03:15:48.560Z,5.80
2018-01-29T03:18:17.788Z,5.80
2018-01-29T03:20:46.258Z,5.80
2018-01-29T03:23:14.722Z,5.80
2018-01-29T03:25:44.153Z,5.70
2018-01-29T04:14:06.273Z,5.40
2018-01-29T04:16:34.756Z,5.40
2018-01-29T04:19:03.239Z,5.40
2018-01-29T04:21:31.742Z,5.40
2018-01-29T04:24:00.202Z,5.50
2018-01-29T04:26:28.671Z,5.50
2018-01-29T04:28:57.147Z,5.50
2018-01-29T04:31:25.619Z,5.60
2018-01-29T04:33:54.095Z,5.60
2018-01-29T04:36:22.563Z,5.60
2018-01-29T04:38:51.033Z,5.60
2018-01-29T04:41:19.497Z,5.60
2018-01-29T04:43:49.483Z,5.70
2018-01-29T04:46:17.753Z,5.70
2018-01-29T04:48:45.918Z,5.60
2018-01-29T04:51:15.708Z,5.70
2018-01-29T04:53:44.185Z,5.70
2018-01-29T04:56:12.652Z,5.70
2018-01-29T04:58:41.124Z,5.60
2018-01-29T05:01:09.614Z,5.60
2018-01-29T05:03:38.072Z,5.70
2018-01-29T05:06:07.341Z,5.70
2018-01-29T05:08:35.812Z,5.70
2018-01-29T05:11:04.267Z,5.70
2018-01-29T05:13:32.751Z,5.70
2018-01-29T05:16:01.217Z,5.70
2018-01-29T05:18:29.721Z,5.60
2018-01-29T05:20:58.191Z,5.70
2018-01-29T05:23:26.663Z,5.70
2018-01-29T05:25:55.152Z,5.70
2018-01-29T05:28:23.621Z,5.70
2018-01-29T05:30:52.078Z,5.60
2018-01-29T05:33:20.550Z,5.60
2018-01-29T05:36:07.648Z,5.60
2018-01-29T05:38:37.272Z,5.70
2018-01-29T05:41:05.533Z,5.70
2018-01-29T05:43:34.596Z,5.50
2018-01-29T05:46:03.077Z,5.50
2018-01-29T05:48:31.393Z,5.50
2018-01-29T05:50:59.846Z,5.60
2018-01-29T05:53:28.300Z,5.60
2018-01-29T05:55:56.784Z,5.60
2018-01-29T05:58:26.021Z,5.60
2018-01-29T06:00:55.281Z,5.60
2018-01-29T06:03:23.743Z,5.60
2018-01-29T06:05:52.239Z,5.60
2018-01-29T06:08:20.698Z,5.60
2018-01-29T06:10:49.213Z,5.70
2018-01-29T06:13:18.131Z,5.60
2018-01-29T06:15:47.358Z,5.60
2018-01-29T06:18:15.843Z,5.60
2018-01-29T06:20:44.307Z,5.60
2018-01-29T06:23:12.759Z,5.50
2018-01-29T06:25:42.002Z,5.60
2018-01-29T06:28:10.474Z,5.60
2018-01-29T06:30:38.966Z,5.60
2018-01-29T06:33:07.423Z,5.60
2018-01-29T06:35:35.887Z,5.70
2018-01-29T06:38:04.384Z,5.60
2018-01-29T06:40:32.839Z,5.60
2018-01-29T06:43:02.058Z,5.60
2018-01-29T06:45:30.544Z,5.70
2018-01-29T06:47:58.679Z,5.70
2018-01-29T06:50:27.903Z,5.70
2018-01-29T06:52:56.201Z,5.60
2018-01-29T06:55:24.468Z,5.70
2018-01-29T06:57:52.853Z,5.50
2018-01-29T07:00:21.343Z,5.60
2018-01-29T07:02:49.807Z,5.50
2018-01-29T07:05:19.137Z,5.50
2018-01-29T07:07:47.887Z,5.50
2018-01-29T07:10:16.471Z,5.50
2018-01-29T07:12:44.938Z,5.60
2018-01-29T07:15:13.403Z,5.60
2018-01-29T07:17:42.093Z,5.60
2018-01-29T07:20:10.226Z,5.50
2018-01-29T07:22:39.632Z,5.60
2018-01-29T07:25:09.080Z,5.60
2018-01-29T07:27:37.544Z,5.60
2018-01-29T07:30:06.013Z,5.60
2018-01-29T07:32:36.274Z,5.50
2018-01-29T07:35:04.619Z,5.50
2018-01-29T07:37:33.096Z,5.60
2018-01-29T07:40:01.554Z,5.60
2018-01-29T07:42:31.867Z,5.70
2018-01-29T07:45:00.010Z,5.60
2018-01-29T07:47:28.489Z,5.60
2018-01-29T07:49:56.962Z,5.60
2018-01-29T07:52:26.449Z,5.60
2018-01-29T07:54:54.922Z,5.70
2018-01-29T07:57:23.416Z,5.60
2018-01-29T07:59:51.903Z,5.60
2018-01-29T08:02:20.039Z,5.60
2018-01-29T08:04:48.884Z,5.50
2018-01-29T08:07:17.967Z,5.50
2018-01-29T08:12:14.926Z,5.60
2018-01-29T08:14:43.384Z,5.60
2018-01-29T08:17:11.858Z,5.70
2018-01-29T08:19:40.466Z,5.60
2018-01-29T08:22:08.931Z,5.60
2018-01-29T08:24:37.409Z,5.70
2018-01-29T08:27:05.873Z,5.60
2018-01-29T08:29:34.338Z,5.60
2018-01-29T08:32:02.830Z,5.60
2018-01-29T08:34:31.276Z,5.60
2018-01-29T08:37:00.506Z,5.60
2018-01-29T08:39:28.979Z,5.60
2018-01-29T08:41:57.443Z,5.60
2018-01-29T08:44:26.498Z,5.50
2018-01-29T08:46:54.767Z,5.50
2018-01-29T08:49:23.225Z,5.50
2018-01-29T08:51:51.693Z,5.60
2018-01-29T08:54:20.306Z,5.60
2018-01-29T08:56:48.779Z,5.60
2018-01-29T08:59:17.952Z,5.60
2018-01-29T09:01:47.120Z,5.60
2018-01-29T09:04:16.451Z,5.60
2018-01-29T09:06:44.926Z,5.60
2018-01-29T09:09:13.403Z,5.60
2018-01-29T09:11:41.866Z,5.60
2018-01-29T09:14:11.111Z,5.60
2018-01-29T09:16:39.578Z,5.60
2018-01-29T09:19:08.068Z,5.70
2018-01-29T09:21:37.290Z,5.70
2018-01-29T09:24:05.777Z,5.60
2018-01-29T09:26:34.258Z,5.60
2018-01-29T09:29:02.739Z,5.70
2018-01-29T09:31:31.302Z,5.70
2018-01-29T09:33:59.778Z,5.70
2018-01-29T09:36:28.258Z,5.70
2018-01-29T09:38:56.713Z,5.60
2018-01-29T09:41:25.242Z,5.60
2018-01-29T09:43:53.887Z,5.70
2018-01-29T09:46:22.338Z,5.70
2018-01-29T09:48:50.636Z,5.70
2018-01-29T09:51:19.881Z,5.70
2018-01-29T09:53:49.505Z,5.70
2018-01-29T09:56:17.987Z,5.70
2018-01-29T09:58:46.508Z,5.70
2018-01-29T10:01:14.982Z,5.70
2018-01-29T10:03:43.464Z,5.70
2018-01-29T10:06:12.713Z,5.70
2018-01-29T10:08:41.300Z,5.70
2018-01-29T10:11:10.564Z,5.80
2018-01-29T10:13:39.064Z,5.70
2018-01-29T10:16:07.701Z,5.70
2018-01-29T10:18:36.171Z,5.70
2018-01-29T10:21:04.642Z,5.60
2018-01-29T10:23:33.100Z,5.60
2018-01-29T10:26:02.353Z,5.70
2018-01-29T10:28:30.820Z,5.70
2018-01-29T10:30:58.631Z,5.70
2018-01-29T10:33:27.548Z,5.80
2018-01-29T10:35:56.043Z,5.80
2018-01-29T10:38:24.534Z,5.90
2018-01-29T10:40:53.002Z,5.80
2018-01-29T10:43:20.790Z,5.80
2018-01-29T10:45:50.126Z,5.80
2018-01-29T10:48:19.363Z,5.80
2018-01-29T10:50:48.357Z,5.80
2018-01-29T10:53:17.595Z,5.80
2018-01-29T10:55:46.069Z,5.70
2018-01-29T10:58:14.562Z,5.70
2018-01-29T11:00:49.253Z,5.90
2018-01-29T11:03:17.744Z,5.80
2018-01-29T11:05:46.499Z,5.80
2018-01-29T11:08:14.962Z,5.80
2018-01-29T11:10:43.452Z,5.80
2018-01-29T11:13:11.922Z,5.90
2018-01-29T11:15:40.417Z,5.90
2018-01-29T11:18:08.897Z,5.90
2018-01-29T11:20:37.372Z,5.90
2018-01-29T11:23:05.823Z,5.80
2018-01-29T11:25:35.069Z,5.70
2018-01-29T11:28:04.305Z,5.80
2018-01-29T11:30:32.850Z,5.80
2018-01-29T11:33:01.337Z,5.90
2018-01-29T11:35:29.792Z,5.80
2018-01-29T11:37:58.278Z,5.90
2018-01-29T11:40:26.763Z,6.00
2018-01-29T11:42:55.249Z,6.00
2018-01-29T11:45:23.717Z,5.90
2018-01-29T11:47:51.846Z,6.00
2018-01-29T11:50:21.100Z,5.90
2018-01-29T11:52:49.556Z,5.90
2018-01-29T11:55:18.821Z,5.90
2018-01-29T11:57:48.048Z,5.90
2018-01-29T12:00:16.557Z,5.90
2018-01-29T12:02:45.032Z,6.00
2018-01-29T12:05:13.540Z,6.00
2018-01-29T12:07:42.197Z,6.10
2018-01-29T12:10:10.667Z,6.00
2018-01-29T12:12:39.128Z,5.90
2018-01-29T12:15:07.603Z,6.00
2018-01-29T12:17:36.092Z,6.00
2018-01-29T12:20:04.219Z,6.00
2018-01-29T12:22:32.728Z,6.00
2018-01-29T12:25:01.224Z,6.10
2018-01-29T12:27:29.504Z,6.10
2018-01-29T12:29:58.952Z,6.00
2018-01-29T12:32:27.422Z,6.00
2018-01-29T12:34:55.910Z,6.00
2018-01-29T12:37:24.389Z,6.10
2018-01-29T12:39:52.880Z,6.10
2018-01-29T12:42:21.355Z,6.10
2018-01-29T12:44:49.897Z,6.10
2018-01-29T12:47:19.077Z,6.00
2018-01-29T12:49:48.040Z,6.10
2018-01-29T12:52:18.240Z,6.10
2018-01-29T12:54:47.347Z,6.10
2018-01-29T12:57:16.909Z,6.10
2018-01-29T12:59:45.577Z,6.10
2018-01-29T13:02:14.049Z,6.10
2018-01-29T13:04:42.512Z,6.10
2018-01-29T13:07:10.982Z,6.10
2018-01-29T13:09:40.228Z,6.10
2018-01-29T13:12:08.712Z,6.10
2018-01-29T13:14:37.197Z,6.10
2018-01-29T13:17:05.667Z,6.20
2018-01-29T13:19:34.135Z,6.10
2018-01-29T13:22:02.623Z,6.10
2018-01-29T13:24:31.089Z,6.20
2018-01-29T13:26:59.565Z,6.10
2018-01-29T13:29:28.057Z,6.10
2018-01-29T13:31:56.520Z,6.10
2018-01-29T13:34:25.003Z,6.10
2018-01-29T13:36:53.459Z,6.20
2018-01-29T13:39:22.723Z,6.10
2018-01-29T13:41:50.557Z,6.10
2018-01-29T13:44:18.960Z,6.10
2018-01-29T13:46:47.450Z,6.10
2018-01-29T13:49:15.904Z,6.10
2018-01-29T13:51:44.354Z,6.10
2018-01-29T13:54:12.834Z,6.10
2018-01-29T13:56:41.320Z,6.10
2018-01-29T13:59:09.827Z,6.20
2018-01-29T14:01:38.289Z,6.20
2018-01-29T14:04:06.769Z,6.20
2018-01-29T14:06:35.246Z,6.10
2018-01-29T14:09:03.447Z,6.10
2018-01-29T14:11:32.001Z,6.20
2018-01-29T14:14:00.463Z,6.10
2018-01-29T14:16:28.649Z,6.20
2018-01-29T14:18:57.153Z,6.20
2018-01-29T14:21:25.625Z,6.10
2018-01-29T14:23:54.104Z,6.10
2018-01-29T14:26:22.603Z,6.10
2018-01-29T14:28:51.081Z,6.10
2018-01-29T14:31:19.555Z,6.10
2018-01-29T14:33:48.895Z,6.20
2018-01-29T14:36:18.399Z,6.10
2018-01-29T14:38:48.179Z,6.20
2018-01-29T14:41:17.427Z,6.10
2018-01-29T14:43:45.894Z,6.20
2018-01-29T14:46:14.394Z,6.20
2018-01-29T14:48:42.863Z,6.20
2018-01-29T14:51:11.333Z,6.20
2018-01-29T14:53:40.592Z,6.20
2018-01-29T14:56:09.072Z,6.20
2018-01-29T14:58:37.540Z,6.20
2018-01-29T15:01:06.019Z,6.20
2018-01-29T15:03:34.489Z,6.20
2018-01-29T15:06:02.959Z,6.20
2018-01-29T15:08:31.441Z,6.20
2018-01-29T15:10:59.895Z,6.20
2018-01-29T15:13:28.382Z,6.20
2018-01-29T15:15:57.836Z,6.30
2018-01-29T15:18:26.293Z,6.30
2018-01-29T15:20:55.520Z,6.20
2018-01-29T15:23:24.022Z,6.20
2018-01-29T15:25:53.253Z,6.20
2018-01-29T15:28:21.714Z,6.20
2018-01-29T15:30:50.187Z,6.20
2018-01-29T15:33:19.530Z,6.20
2018-01-29T15:35:48.663Z,6.20
2018-01-29T15:38:17.912Z,6.20
2018-01-29T15:40:47.086Z,6.20
2018-01-29T15:43:15.559Z,6.10
2018-01-29T15:45:44.039Z,6.20
2018-01-29T15:48:12.525Z,6.10
2018-01-29T15:50:41.019Z,6.20
2018-01-29T15:53:09.505Z,6.20
2018-01-29T15:55:37.991Z,6.20
2018-01-29T15:58:06.464Z,6.20
2018-01-29T16:00:34.959Z,6.20
2018-01-29T16:03:03.421Z,6.20
2018-01-29T16:05:31.921Z,6.20
2018-01-29T16:08:00.391Z,6.30
2018-01-29T16:10:28.862Z,6.20
2018-01-29T16:12:57.351Z,6.20
2018-01-29T16:15:25.821Z,6.20
2018-01-29T16:17:54.982Z,6.30
2018-01-29T16:20:24.219Z,6.20
2018-01-29T16:22:52.694Z,6.20
2018-01-29T16:25:21.174Z,6.20
2018-01-29T16:27:49.634Z,6.20
2018-01-29T16:30:18.882Z,6.20
2018-01-29T16:32:48.128Z,6.20
2018-01-29T16:35:16.829Z,6.10
2018-01-29T16:37:45.319Z,6.20
2018-01-29T16:40:14.553Z,6.10
2018-01-29T16:42:43.015Z,6.10
2018-01-29T16:45:11.497Z,6.10
2018-01-29T16:47:39.963Z,6.10
2018-01-29T16:50:08.440Z,6.10
2018-01-29T16:52:36.899Z,6.20
2018-01-29T16:55:05.521Z,6.10
2018-01-29T16:57:33.986Z,6.10
2018-01-29T17:00:02.448Z,6.10
2018-01-29T17:02:30.739Z,6.10
2018-01-29T17:04:59.216Z,6.00
2018-01-29T17:07:28.486Z,6.10
2018-01-29T17:09:56.964Z,6.10
2018-01-29T17:12:25.588Z,6.10
2018-01-29T17:14:54.064Z,6.10
2018-01-29T17:17:23.474Z,6.10
2018-01-29T17:19:51.944Z,6.00
2018-01-29T17:22:20.439Z,6.00
2018-01-29T17:24:48.910Z,6.00
2018-01-29T17:27:16.796Z,6.10
2018-01-29T17:29:46.054Z,6.00
2018-01-29T17:32:15.399Z,6.10
2018-01-29T17:34:44.646Z,6.00
2018-01-29T17:37:13.915Z,6.00
2018-01-29T17:39:42.398Z,6.00
2018-01-29T17:42:10.687Z,6.00
2018-01-29T17:44:39.157Z,6.00
2018-01-29T17:47:07.643Z,6.10
2018-01-29T17:49:36.130Z,6.10
2018-01-29T17:52:04.596Z,6.00
2018-01-29T17:54:33.096Z,6.10
2018-01-29T17:57:01.578Z,6.00
2018-01-29T17:59:30.976Z,6.10
2018-01-29T18:01:59.475Z,6.10
2018-01-29T18:04:27.944Z,6.00
2018-01-29T18:06:56.394Z,6.00
2018-01-29T18:09:24.896Z,6.00
2018-01-29T18:11:53.359Z,6.00
2018-01-29T18:14:21.831Z,5.90
2018-01-29T18:16:50.301Z,6.00
2018-01-29T18:19:18.790Z,6.00
2018-01-29T18:21:47.266Z,6.00
2018-01-29T18:24:15.054Z,6.00
2018-01-29T18:26:43.534Z,6.00
2018-01-29T18:29:12.003Z,6.00
2018-01-29T18:31:40.492Z,6.00
2018-01-29T18:34:08.942Z,6.00
2018-01-29T18:36:37.408Z,6.00
2018-01-29T18:39:06.319Z,6.00
2018-01-29T18:41:34.463Z,6.00
2018-01-29T18:44:03.715Z,6.00
2018-01-29T18:46:32.184Z,6.00
2018-01-29T18:49:01.419Z,6.00
2018-01-29T18:51:30.107Z,6.00
2018-01-29T18:53:59.337Z,6.00
2018-01-29T18:56:27.807Z,6.00
2018-01-29T18:58:57.650Z,6.00
2018-01-29T19:01:26.123Z,6.00
2018-01-29T19:03:54.611Z,6.00
2018-01-29T19:06:23.065Z,5.90
2018-01-29T19:08:51.531Z,6.00
2018-01-29T19:11:20.780Z,5.90
2018-01-29T19:13:50.006Z,6.00
2018-01-29T19:16:18.490Z,6.00
2018-01-29T19:18:47.745Z,6.00
2018-01-29T19:21:16.219Z,6.00
2018-01-29T19:23:44.683Z,6.00
2018-01-29T19:26:12.841Z,5.90
2018-01-29T19:28:41.310Z,5.90
2018-01-29T19:31:10.563Z,6.40
2018-01-29T19:33:39.041Z,5.90
2018-01-29T19:36:06.832Z,5.90
2018-01-29T19:38:35.333Z,5.90
2018-01-29T19:41:04.556Z,6.00
2018-01-29T19:43:33.053Z,5.90
2018-01-29T19:46:01.533Z,6.00
2018-01-29T19:48:30.675Z,5.90
2018-01-29T19:50:59.928Z,5.90
2018-01-29T19:53:28.579Z,5.90
2018-01-29T19:55:57.053Z,5.90
2018-01-29T19:58:25.542Z,5.90
2018-01-29T20:00:53.998Z,5.90
2018-01-29T20:03:23.227Z,5.90
2018-01-29T20:05:51.713Z,5.90
2018-01-29T20:08:20.188Z,5.90
2018-01-29T20:10:48.731Z,5.80
2018-01-29T20:13:17.972Z,5.90
2018-01-29T20:15:45.791Z,5.90
2018-01-29T20:18:15.034Z,5.90
2018-01-29T20:20:43.519Z,5.90
2018-01-29T20:23:11.978Z,5.90
2018-01-29T20:25:40.442Z,5.90
2018-01-29T20:28:08.904Z,5.90
2018-01-29T20:30:37.480Z,5.90
2018-01-29T20:33:06.720Z,5.90
2018-01-29T20:35:34.513Z,5.90
2018-01-29T20:38:02.658Z,5.90
2018-01-29T20:40:31.425Z,5.90
2018-01-29T20:43:00.534Z,5.90
2018-01-29T20:45:29.574Z,5.90
2018-01-29T20:47:58.056Z,5.90
2018-01-29T20:50:26.543Z,5.90
2018-01-29T20:52:55.792Z,5.90
2018-01-29T20:55:24.284Z,5.90
2018-01-29T20:57:52.753Z,5.90
2018-01-29T21:00:21.206Z,5.90
2018-01-29T21:02:49.693Z,5.90
2018-01-29T21:05:18.166Z,5.90
2018-01-29T21:07:46.674Z,5.90
2018-01-29T21:10:15.142Z,5.90
2018-01-29T21:12:43.610Z,5.80
2018-01-29T21:15:12.090Z,5.80
2018-01-29T21:17:40.541Z,5.90
2018-01-29T21:20:09.124Z,5.90
2018-01-29T21:22:38.382Z,5.90
2018-01-29T21:25:06.845Z,5.90
2018-01-29T21:27:35.305Z,5.90
2018-01-29T21:30:03.791Z,5.90
2018-01-29T21:32:32.255Z,5.90
2018-01-29T21:35:00.725Z,5.90
2018-01-29T21:37:29.989Z,5.90
2018-01-29T21:39:58.456Z,5.90
2018-01-29T21:42:26.922Z,5.90
2018-01-29T21:44:55.400Z,5.90
2018-01-29T21:47:26.221Z,5.90
2018-01-29T21:49:54.689Z,5.90
2018-01-29T21:52:23.153Z,5.90
2018-01-29T21:54:52.404Z,5.90
2018-01-29T21:57:20.884Z,5.90
2018-01-29T21:59:49.340Z,5.90
2018-01-29T22:02:18.507Z,6.00
2018-01-29T22:04:48.491Z,5.90
2018-01-29T22:07:17.134Z,6.00
2018-01-29T22:09:45.617Z,5.90
2018-01-29T22:12:14.113Z,5.90
2018-01-29T22:14:42.577Z,6.00
2018-01-29T22:17:11.046Z,6.00
2018-01-29T22:19:39.532Z,6.00
2018-01-29T22:22:07.996Z,6.00
2018-01-29T22:24:36.674Z,5.90
2018-01-29T22:27:05.136Z,6.00
2018-01-29T22:29:34.352Z,5.90
2018-01-29T22:32:02.838Z,5.90
2018-01-29T22:34:31.013Z,5.90
2018-01-29T22:36:59.514Z,5.90
2018-01-29T22:39:27.663Z,5.90
2018-01-29T22:41:56.130Z,6.00
2018-01-29T22:44:24.731Z,5.90
2018-01-29T22:46:53.202Z,5.90
2018-01-29T22:49:21.670Z,5.90
2018-01-29T22:51:50.155Z,5.90
2018-01-29T22:54:18.636Z,5.90
2018-01-29T22:56:48.043Z,5.90
2018-01-29T22:59:16.906Z,5.90
2018-01-29T23:01:47.203Z,5.90
2018-01-29T23:04:15.983Z,5.90
2018-01-29T23:06:44.483Z,5.90
2018-01-29T23:09:12.987Z,5.90
2018-01-29T23:11:41.458Z,5.90
2018-01-29T23:14:10.676Z,5.90
2018-01-29T23:16:39.168Z,5.90
2018-01-29T23:19:07.305Z,5.90
2018-01-29T23:21:36.537Z,5.90
2018-01-29T23:24:05.020Z,5.90
2018-01-29T23:26:33.492Z,5.90
2018-01-29T23:29:01.969Z,5.90
2018-01-29T23:31:30.441Z,5.90
2018-01-29T23:33:58.927Z,5.90
2018-01-29T23:36:27.392Z,5.90
2018-01-29T23:38:55.851Z,5.90
2018-01-29T23:41:25.100Z,5.90
2018-01-29T23:43:53.558Z,5.90
2018-01-29T23:46:22.027Z,5.90
2018-01-29T23:48:50.486Z,5.90
2018-01-29T23:51:19.730Z,5.90
2018-01-29T23:53:49.119Z,5.90
2018-01-29T23:56:18.332Z,5.90
2018-01-29T23:58:46.802Z,6.00
